^^
Datos históricos de la estación: Murcia-Puente Tocinos
Diario Informe para Abril 29, 2019 Unidades:  Métrico    Inglés   Ambas
Diario Semanal Mensual Anual Configurable
  Máximo: Mínimo: Media:
Temperatura: 21.4 °C 11.9 °C 16.8 °C
Punto de rocio: 12.8 °C 6.9 °C 10.1 °C
Humedad: 84% 51% 65%
Velocidad viento: 20.9km/h 0.0km/h 8.1km/h
Racha viento: 38.6km/h - -
Viento- - ENE
Presión: 1018.9 hPa 1015.3 hPa -
Precipitación: 0.0 mm    
Historical Graphs
 
 
Tabla de datos para Abril 29, 2019
Hora Temperatura Punto de rocio Presión Viento Velocidad viento Racha viento Humedad Intensidad lluvia(por hora) Nubes
00:00 15.8 °C 7.8 °C 1018.9 hPa NE 4.8 km/h 9.7 km/h 59% 0.0 mm CLR
00:05 15.7 °C 7.7 °C 1018.9 hPa ENE 5.8 km/h 7.4 km/h 59% 0.0 mm CLR
00:10 15.7 °C 7.7 °C 1018.9 hPa NE 5.0 km/h 7.6 km/h 59% 0.0 mm CLR
00:15 15.7 °C 7.9 °C 1018.9 hPa NNE 5.0 km/h 7.4 km/h 60% 0.0 mm CLR
00:20 15.6 °C 7.8 °C 1018.8 hPa NE 5.8 km/h 9.3 km/h 60% 0.0 mm CLR
00:25 15.5 °C 8.2 °C 1018.8 hPa NE 5.8 km/h 9.3 km/h 62% 0.0 mm CLR
00:30 15.4 °C 8.2 °C 1018.8 hPa NE 5.8 km/h 7.4 km/h 62% 0.0 mm CLR
00:35 15.3 °C 8.3 °C 1018.8 hPa North 5.8 km/h 7.4 km/h 63% 0.0 mm CLR
00:40 15.2 °C 8.2 °C 1018.8 hPa NE 4.7 km/h 7.4 km/h 63% 0.0 mm CLR
00:45 15.2 °C 8.4 °C 1018.8 hPa NE 4.7 km/h 7.4 km/h 64% 0.0 mm CLR
00:50 15.1 °C 8.3 °C 1018.7 hPa NE 4.7 km/h 5.6 km/h 64% 0.0 mm CLR
00:55 15.1 °C 8.3 °C 1018.7 hPa NE 4.7 km/h 5.6 km/h 64% 0.0 mm CLR
01:00 15.0 °C 8.2 °C 1018.7 hPa NE 3.2 km/h 8.0 km/h 64% 0.0 mm CLR
01:04 14.9 °C 8.2 °C 1018.7 hPa North 3.9 km/h 3.9 km/h 64% 0.0 mm CLR
01:09 14.8 °C 8.3 °C 1018.7 hPa NNE 3.2 km/h 7.4 km/h 65% 0.0 mm CLR
01:14 14.7 °C 8.2 °C 1018.7 hPa NE 3.2 km/h 7.4 km/h 65% 0.0 mm CLR
01:19 14.7 °C 7.9 °C 1018.6 hPa NE 4.7 km/h 5.6 km/h 64% 0.0 mm CLR
01:24 14.6 °C 7.9 °C 1018.6 hPa NE 4.7 km/h 3.7 km/h 64% 0.0 mm CLR
01:29 14.6 °C 8.1 °C 1018.6 hPa NE 2.9 km/h 3.7 km/h 65% 0.0 mm CLR
01:34 14.6 °C 7.4 °C 1018.6 hPa ENE 2.9 km/h   62% 0.0 mm CLR
01:39 14.6 °C 7.4 °C 1018.6 hPa Calm   2.9 km/h 62% 0.0 mm CLR
01:44 14.6 °C 7.6 °C 1018.6 hPa Calm   4.7 km/h 63% 0.0 mm CLR
01:49 14.6 °C 7.9 °C 1018.6 hPa NE 2.3 km/h   64% 0.0 mm CLR
01:54 14.5 °C 7.8 °C 1018.6 hPa ENE 2.3 km/h   64% 0.0 mm CLR
01:59 14.4 °C 7.7 °C 1018.6 hPa Calm     64% 0.0 mm CLR
02:04 14.4 °C 7.7 °C 1018.7 hPa Calm     64% 0.0 mm CLR
02:09 14.4 °C 7.7 °C 1018.7 hPa Calm     64% 0.0 mm CLR
02:14 14.4 °C 7.7 °C 1018.7 hPa Calm     64% 0.0 mm CLR
02:19 14.4 °C 7.7 °C 1018.5 hPa Calm     64% 0.0 mm CLR
02:24 14.4 °C 7.2 °C 1018.5 hPa Calm     62% 0.0 mm CLR
02:29 14.3 °C 7.1 °C 1018.5 hPa Calm     62% 0.0 mm CLR
02:34 14.3 °C 6.9 °C 1018.3 hPa Calm     61% 0.0 mm CLR
02:39 14.3 °C 7.1 °C 1018.3 hPa Calm   3.7 km/h 62% 0.0 mm CLR
02:44 14.3 °C 7.1 °C 1018.3 hPa Calm     62% 0.0 mm CLR
02:49 14.2 °C 7.3 °C 1018.2 hPa ENE 2.3 km/h 3.7 km/h 63% 0.0 mm CLR
02:54 14.2 °C 7.5 °C 1018.2 hPa ENE 2.3 km/h   64% 0.0 mm CLR
02:59 14.1 °C 7.4 °C 1018.2 hPa Calm   3.9 km/h 64% 0.0 mm CLR
03:04 14.0 °C 7.5 °C 1018.2 hPa Calm   3.7 km/h 65% 0.0 mm CLR
03:09 14.0 °C 7.7 °C 1018.2 hPa ENE 2.9 km/h 5.6 km/h 66% 0.0 mm CLR
03:14 14.0 °C 7.5 °C 1018.2 hPa ENE 2.9 km/h 5.0 km/h 65% 0.0 mm CLR
03:19 13.9 °C 7.4 °C 1018.0 hPa SSE 3.9 km/h 7.6 km/h 65% 0.0 mm CLR
03:24 14.0 °C 7.3 °C 1018.0 hPa SSE 3.9 km/h 7.4 km/h 64% 0.0 mm CLR
03:29 14.1 °C 7.4 °C 1018.0 hPa SE 5.0 km/h 5.6 km/h 64% 0.0 mm CLR
03:34 14.1 °C 7.4 °C 1018.0 hPa SE 5.0 km/h 5.6 km/h 64% 0.0 mm CLR
03:39 14.1 °C 7.6 °C 1018.0 hPa SSE 3.2 km/h 5.6 km/h 65% 0.0 mm CLR
03:44 14.0 °C 7.7 °C 1018.0 hPa South 3.2 km/h 7.4 km/h 66% 0.0 mm CLR
03:49 13.9 °C 7.7 °C 1017.9 hPa SSE 4.7 km/h 7.4 km/h 66% 0.0 mm CLR
03:54 13.9 °C 7.7 °C 1017.9 hPa SSE 4.7 km/h 5.8 km/h 66% 0.0 mm CLR
03:59 13.9 °C 7.9 °C 1017.9 hPa SE 5.0 km/h 7.4 km/h 67% 0.0 mm CLR
04:04 13.9 °C 7.9 °C 1017.8 hPa SSE 5.0 km/h 7.4 km/h 67% 0.0 mm CLR
04:09 13.9 °C 7.9 °C 1017.8 hPa SSE 4.7 km/h 7.4 km/h 67% 0.0 mm CLR
04:14 13.9 °C 8.1 °C 1017.8 hPa SSE 4.7 km/h 7.4 km/h 68% 0.0 mm CLR
04:19 13.8 °C 8.0 °C 1017.8 hPa South 5.0 km/h 9.3 km/h 68% 0.0 mm CLR
04:24 13.8 °C 8.0 °C 1017.8 hPa South 5.0 km/h 7.4 km/h 68% 0.0 mm CLR
04:29 13.8 °C 8.2 °C 1017.8 hPa South 4.7 km/h 5.6 km/h 69% 0.0 mm CLR
04:34 13.8 °C 8.2 °C 1017.8 hPa South 4.7 km/h 3.7 km/h 69% 0.0 mm CLR
04:39 13.8 °C 8.2 °C 1017.8 hPa South 2.3 km/h 3.7 km/h 69% 0.0 mm CLR
04:44 13.7 °C 8.1 °C 1017.8 hPa South 2.3 km/h   69% 0.0 mm CLR
04:49 13.6 °C 8.0 °C 1017.7 hPa Calm     69% 0.0 mm CLR
04:54 13.4 °C 7.8 °C 1017.7 hPa Calm   3.7 km/h 69% 0.0 mm CLR
04:59 13.3 °C 7.9 °C 1017.7 hPa South 2.3 km/h 3.7 km/h 70% 0.0 mm CLR
05:04 13.2 °C 7.8 °C 1017.6 hPa South 2.3 km/h   70% 0.0 mm CLR
05:09 13.2 °C 7.8 °C 1017.6 hPa Calm   2.9 km/h 70% 0.0 mm CLR
05:14 13.2 °C 7.8 °C 1017.6 hPa Calm   5.6 km/h 70% 0.0 mm CLR
05:19 13.2 °C 7.8 °C 1017.6 hPa South 2.9 km/h 5.6 km/h 70% 0.0 mm CLR
05:24 13.2 °C 7.8 °C 1017.6 hPa South 2.9 km/h 7.4 km/h 70% 0.0 mm CLR
05:29 13.3 °C 7.7 °C 1017.6 hPa South 5.0 km/h 9.3 km/h 69% 0.0 mm CLR
05:34 13.3 °C 7.7 °C 1017.5 hPa SSW 5.0 km/h 7.4 km/h 69% 0.0 mm CLR
05:39 13.4 °C 7.8 °C 1017.5 hPa SSW 4.7 km/h 7.4 km/h 69% 0.0 mm CLR
05:44 13.4 °C 7.8 °C 1017.5 hPa SSW 4.7 km/h 7.4 km/h 69% 0.0 mm CLR
05:49 13.4 °C 7.8 °C 1017.4 hPa SSW 3.9 km/h 3.7 km/h 69% 0.0 mm CLR
05:54 13.4 °C 8.1 °C 1017.4 hPa SSW 3.9 km/h   70% 0.0 mm CLR
05:59 13.4 °C 7.8 °C 1017.4 hPa Calm   5.6 km/h 69% 0.0 mm CLR
06:04 13.3 °C 7.9 °C 1017.4 hPa Calm   3.7 km/h 70% 0.0 mm CLR
06:09 13.2 °C 7.8 °C 1017.4 hPa SSW 2.3 km/h   70% 0.0 mm CLR
06:14 13.1 °C 7.7 °C 1017.4 hPa SSW 2.3 km/h 3.7 km/h 70% 0.0 mm CLR
06:19 12.9 °C 7.8 °C 1017.4 hPa Calm   3.7 km/h 71% 0.0 mm CLR
06:24 12.8 °C 7.7 °C 1017.4 hPa Calm   2.3 km/h 71% 0.0 mm CLR
06:29 12.7 °C 7.8 °C 1017.4 hPa Calm   3.7 km/h 72% 0.0 mm CLR
06:34 12.6 °C 7.7 °C 1017.5 hPa Calm     72% 0.0 mm CLR
06:39 12.5 °C 7.6 °C 1017.5 hPa Calm   3.9 km/h 72% 0.0 mm CLR
06:44 12.4 °C 7.7 °C 1017.5 hPa Calm     73% 0.0 mm CLR
06:49 12.3 °C 7.6 °C 1017.6 hPa Calm     73% 0.0 mm CLR
06:54 12.2 °C 7.5 °C 1017.6 hPa Calm     73% 0.0 mm CLR
06:59 12.2 °C 7.7 °C 1017.6 hPa Calm     74% 0.0 mm CLR
07:04 12.2 °C 7.7 °C 1017.7 hPa Calm     74% 0.0 mm CLR
07:09 12.2 °C 7.9 °C 1017.7 hPa Calm     75% 0.0 mm CLR
07:15 12.2 °C 7.7 °C 1017.7 hPa Calm     74% 0.0 mm CLR
07:19 12.2 °C 7.7 °C 1017.9 hPa Calm     74% 0.0 mm CLR
07:24 12.1 °C 7.6 °C 1017.9 hPa Calm   5.6 km/h 74% 0.0 mm CLR
07:29 12.1 °C 7.6 °C 1017.9 hPa East 2.9 km/h 4.7 km/h 74% 0.0 mm CLR
07:34 12.0 °C 7.5 °C 1018.0 hPa East 2.9 km/h 3.9 km/h 74% 0.0 mm CLR
07:39 11.9 °C 7.6 °C 1018.0 hPa East 2.9 km/h 3.7 km/h 75% 0.0 mm CLR
07:44 12.1 °C 7.8 °C 1018.0 hPa East 2.9 km/h 3.7 km/h 75% 0.0 mm CLR
07:49 12.1 °C 7.8 °C 1018.2 hPa East 2.9 km/h 3.2 km/h 75% 0.0 mm CLR
07:54 12.3 °C 8.0 °C 1018.2 hPa East 2.9 km/h   75% 0.0 mm CLR
07:59 12.4 °C 7.9 °C 1018.2 hPa Calm     74% 0.0 mm CLR
08:04 12.7 °C 8.0 °C 1018.4 hPa Calm   5.6 km/h 73% 0.0 mm CLR
08:09 12.8 °C 8.1 °C 1018.4 hPa SE 2.9 km/h 7.4 km/h 73% 0.0 mm CLR
08:15 12.9 °C 8.2 °C 1018.4 hPa SE 3.2 km/h 4.8 km/h 73% 0.0 mm CLR
08:19 13.1 °C 8.4 °C 1018.5 hPa SE 2.9 km/h 3.7 km/h 73% 0.0 mm CLR
08:24 13.4 °C 8.4 °C 1018.5 hPa SE 2.9 km/h   72% 0.0 mm CLR
08:29 13.8 °C 8.6 °C 1018.5 hPa Calm     71% 0.0 mm CLR
08:34 14.3 °C 8.7 °C 1018.5 hPa Calm   3.9 km/h 69% 0.0 mm CLR
08:39 14.7 °C 8.8 °C 1018.5 hPa NNE 2.3 km/h 4.7 km/h 68% 0.0 mm CLR
08:44 14.9 °C 8.8 °C 1018.5 hPa NE 2.3 km/h 6.4 km/h 67% 0.0 mm CLR
08:49 14.9 °C 8.8 °C 1018.6 hPa NE 3.2 km/h 7.4 km/h 67% 0.0 mm CLR
08:54 14.8 °C 8.9 °C 1018.6 hPa NNE 3.2 km/h 5.6 km/h 68% 0.0 mm CLR
08:59 14.9 °C 9.1 °C 1018.6 hPa NNE 3.2 km/h 3.9 km/h 68% 0.0 mm CLR
09:04 15.1 °C 9.0 °C 1018.7 hPa NE 3.2 km/h 7.4 km/h 67% 0.0 mm CLR
09:09 15.4 °C 9.1 °C 1018.7 hPa NE 2.9 km/h 7.4 km/h 66% 0.0 mm CLR
09:14 15.4 °C 9.1 °C 1018.7 hPa NNE 2.9 km/h 7.4 km/h 66% 0.0 mm CLR
09:19 15.4 °C 9.1 °C 1018.8 hPa NNE 3.9 km/h 7.4 km/h 66% 0.0 mm CLR
09:24 15.6 °C 9.3 °C 1018.8 hPa NE 3.9 km/h 6.4 km/h 66% 0.0 mm CLR
09:29 15.6 °C 9.1 °C 1018.8 hPa NE 3.9 km/h 4.7 km/h 65% 0.0 mm CLR
09:34 15.7 °C 9.1 °C 1018.7 hPa NE 3.9 km/h 5.6 km/h 65% 0.0 mm CLR
09:39 15.7 °C 9.4 °C 1018.7 hPa NE 3.9 km/h 7.4 km/h 66% 0.0 mm CLR
09:44 15.8 °C 9.4 °C 1018.7 hPa East 3.9 km/h 7.4 km/h 66% 0.0 mm CLR
09:49 15.9 °C 9.3 °C 1018.6 hPa NNE 4.7 km/h 9.3 km/h 65% 0.0 mm CLR
09:54 16.0 °C 9.4 °C 1018.6 hPa NNE 4.7 km/h 9.3 km/h 65% 0.0 mm CLR
09:59 16.1 °C 9.3 °C 1018.6 hPa NNE 4.7 km/h 7.6 km/h 64% 0.0 mm CLR
10:05 16.2 °C 9.4 °C 1018.5 hPa NNE 3.2 km/h 9.7 km/h 64% 0.0 mm CLR
10:09 16.3 °C 9.2 °C 1018.5 hPa North 5.8 km/h 11.1 km/h 63% 0.0 mm CLR
10:14 16.4 °C 9.1 °C 1018.5 hPa North 5.8 km/h 10.3 km/h 62% 0.0 mm CLR
10:19 16.7 °C 9.1 °C 1018.5 hPa NNE 7.6 km/h 13.0 km/h 61% 0.0 mm CLR
10:24 16.6 °C 9.1 °C 1018.5 hPa NNE 7.6 km/h 11.9 km/h 61% 0.0 mm CLR
10:29 16.8 °C 9.5 °C 1018.5 hPa NNE 9.5 km/h 11.9 km/h 62% 0.0 mm CLR
10:35 16.8 °C 9.5 °C 1018.4 hPa NE 9.7 km/h 19.3 km/h 62% 0.0 mm CLR
10:39 16.9 °C 9.8 °C 1018.4 hPa NNE 10.0 km/h 16.7 km/h 63% 0.0 mm CLR
10:44 17.1 °C 10.2 °C 1018.4 hPa NE 10.0 km/h 13.0 km/h 64% 0.0 mm CLR
10:49 17.2 °C 10.3 °C 1018.4 hPa NNE 11.1 km/h 16.7 km/h 64% 0.0 mm CLR
10:54 17.4 °C 10.3 °C 1018.4 hPa ENE 11.1 km/h 20.4 km/h 63% 0.0 mm CLR
10:59 17.5 °C 10.4 °C 1018.4 hPa NE 10.3 km/h 14.8 km/h 63% 0.0 mm CLR
11:04 17.7 °C 10.8 °C 1018.4 hPa WNW 10.3 km/h 11.1 km/h 64% 0.0 mm CLR
11:09 18.0 °C 10.6 °C 1018.4 hPa NNE 9.5 km/h 13.0 km/h 62% 0.0 mm CLR
11:14 18.1 °C 10.4 °C 1018.4 hPa NE 9.5 km/h 9.3 km/h 61% 0.0 mm CLR
11:19 18.4 °C 10.7 °C 1018.4 hPa NE 6.4 km/h 11.1 km/h 61% 0.0 mm CLR
11:24 18.6 °C 10.7 °C 1018.4 hPa SE 6.4 km/h 11.1 km/h 60% 0.0 mm CLR
11:29 18.7 °C 11.0 °C 1018.4 hPa NNE 6.9 km/h 11.1 km/h 61% 0.0 mm CLR
11:34 18.7 °C 11.0 °C 1018.3 hPa North 6.9 km/h 24.1 km/h 61% 0.0 mm CLR
11:39 18.6 °C 10.7 °C 1018.3 hPa NE 10.0 km/h 19.8 km/h 60% 0.0 mm CLR
11:45 18.7 °C 10.5 °C 1018.3 hPa NNE 10.0 km/h 16.7 km/h 59% 0.0 mm CLR
11:49 18.7 °C 10.3 °C 1018.2 hPa ENE 11.9 km/h 11.1 km/h 58% 0.0 mm CLR
11:55 18.9 °C 10.4 °C 1018.2 hPa NNE 11.9 km/h 11.1 km/h 58% 0.0 mm CLR
11:59 19.0 °C 10.8 °C 1018.2 hPa NNE 9.5 km/h 18.5 km/h 59% 0.0 mm CLR
12:05 19.2 °C 10.2 °C 1018.1 hPa NE 9.7 km/h 19.3 km/h 56% 0.0 mm CLR
12:09 19.1 °C 10.1 °C 1018.1 hPa North 10.3 km/h 22.2 km/h 56% 0.0 mm CLR
12:15 19.2 °C 10.5 °C 1018.1 hPa NE 11.3 km/h 20.9 km/h 57% 0.0 mm CLR
12:19 19.3 °C 10.8 °C 1017.9 hPa North 11.9 km/h 22.2 km/h 58% 0.0 mm CLR
12:24 19.4 °C 11.2 °C 1017.9 hPa NE 11.9 km/h 16.7 km/h 59% 0.0 mm CLR
12:29 19.4 °C 11.4 °C 1017.9 hPa NNE 12.2 km/h 20.4 km/h 60% 0.0 mm CLR
12:35 19.4 °C 11.4 °C 1017.9 hPa NNE 12.9 km/h 17.7 km/h 60% 0.0 mm CLR
12:39 19.6 °C 11.6 °C 1017.9 hPa NE 11.9 km/h 22.2 km/h 60% 0.0 mm CLR
12:45 19.7 °C 11.4 °C 1017.9 hPa NE 11.3 km/h 19.3 km/h 59% 0.0 mm CLR
12:49 19.9 °C 11.7 °C 1017.9 hPa NE 11.9 km/h 22.5 km/h 59% 0.0 mm CLR
12:54 19.9 °C 11.7 °C 1017.9 hPa ENE 11.9 km/h 16.7 km/h 59% 0.0 mm CLR
12:59 20.2 °C 11.9 °C 1017.9 hPa NE 12.2 km/h 17.2 km/h 59% 0.0 mm CLR
13:04 20.3 °C 11.8 °C 1017.6 hPa NE 12.2 km/h 16.1 km/h 58% 0.0 mm CLR
13:09 20.2 °C 11.7 °C 1017.6 hPa NE 11.1 km/h 21.7 km/h 58% 0.0 mm CLR
13:15 19.9 °C 11.7 °C 1017.6 hPa NE 11.3 km/h 27.4 km/h 59% 0.0 mm CLR
13:19 20.2 °C 11.7 °C 1017.4 hPa East 14.0 km/h 22.2 km/h 58% 0.0 mm CLR
13:25 20.2 °C 11.7 °C 1017.4 hPa NE 14.0 km/h 20.4 km/h 58% 0.0 mm CLR
13:29 20.5 °C 11.9 °C 1017.4 hPa East 13.0 km/h 20.4 km/h 58% 0.0 mm CLR
13:34 20.3 °C 11.8 °C 1017.1 hPa NE 13.0 km/h 24.1 km/h 58% 0.0 mm CLR
13:39 20.3 °C 11.8 °C 1017.1 hPa ESE 14.8 km/h 18.5 km/h 58% 0.0 mm CLR
13:45 20.7 °C 11.9 °C 1017.1 hPa NE 14.5 km/h 22.5 km/h 57% 0.0 mm CLR
13:49 20.7 °C 12.1 °C 1016.9 hPa NE 12.2 km/h 20.4 km/h 58% 0.0 mm CLR
13:55 20.6 °C 11.8 °C 1016.9 hPa ENE 12.2 km/h 22.2 km/h 57% 0.0 mm CLR
14:00 20.8 °C 12.2 °C 1016.9 hPa NE 14.5 km/h 24.1 km/h 58% 0.0 mm CLR
14:05 20.7 °C 12.1 °C 1016.7 hPa NE 14.5 km/h 24.1 km/h 58% 0.0 mm CLR
14:09 20.8 °C 11.9 °C 1016.7 hPa NE 14.8 km/h 22.2 km/h 57% 0.0 mm CLR
14:15 20.8 °C 11.9 °C 1016.7 hPa NE 14.5 km/h 22.5 km/h 57% 0.0 mm CLR
14:19 21.0 °C 12.2 °C 1016.6 hPa NNE 13.7 km/h 24.1 km/h 57% 0.0 mm CLR
14:25 20.9 °C 11.8 °C 1016.6 hPa NE 12.9 km/h 27.4 km/h 56% 0.0 mm CLR
14:29 21.1 °C 12.0 °C 1016.6 hPa East 14.8 km/h 18.5 km/h 56% 0.0 mm CLR
14:35 21.2 °C 11.8 °C 1016.3 hPa ENE 14.5 km/h 25.7 km/h 55% 0.0 mm CLR
14:39 21.2 °C 11.8 °C 1016.3 hPa ESE 14.0 km/h 22.2 km/h 55% 0.0 mm CLR
14:45 21.2 °C 11.8 °C 1016.3 hPa ENE 14.5 km/h 25.7 km/h 55% 0.0 mm CLR
14:49 21.0 °C 11.6 °C 1016.2 hPa NNE 14.8 km/h 29.6 km/h 55% 0.0 mm CLR
14:55 21.1 °C 11.4 °C 1016.2 hPa NE 14.5 km/h 25.7 km/h 54% 0.0 mm CLR
15:00 21.0 °C 10.8 °C 1016.2 hPa NE 19.3 km/h 27.4 km/h 52% 0.0 mm CLR
15:05 21.2 °C 11.2 °C 1016.0 hPa NE 19.3 km/h 32.2 km/h 53% 0.0 mm CLR
15:09 21.1 °C 10.8 °C 1016.0 hPa NE 16.4 km/h 25.9 km/h 52% 0.0 mm CLR
15:14 21.2 °C 11.2 °C 1016.0 hPa NNE 16.4 km/h 29.6 km/h 53% 0.0 mm CLR
15:19 21.4 °C 10.8 °C 1015.8 hPa NE 16.1 km/h 24.1 km/h 51% 0.0 mm CLR
15:25 21.3 °C 11.1 °C 1015.8 hPa NE 16.1 km/h 24.1 km/h 52% 0.0 mm CLR
15:29 21.3 °C 10.7 °C 1015.8 hPa NW 16.4 km/h 27.8 km/h 51% 0.0 mm CLR
15:35 21.4 °C 10.8 °C 1015.7 hPa NE 16.1 km/h 35.4 km/h 51% 0.0 mm CLR
15:39 21.4 °C 10.8 °C 1015.7 hPa NNE 16.4 km/h 27.8 km/h 51% 0.0 mm CLR
15:45 21.4 °C 11.1 °C 1015.7 hPa NE 16.1 km/h 29.0 km/h 52% 0.0 mm CLR
15:49 21.2 °C 11.2 °C 1015.5 hPa NE 17.2 km/h 29.6 km/h 53% 0.0 mm CLR
15:55 21.2 °C 11.2 °C 1015.5 hPa NE 16.1 km/h 29.0 km/h 53% 0.0 mm CLR
16:00 21.2 °C 11.2 °C 1015.5 hPa NE 19.3 km/h 38.6 km/h 53% 0.0 mm CLR
16:05 21.1 °C 11.4 °C 1015.5 hPa NE 19.3 km/h 29.0 km/h 54% 0.0 mm CLR
16:09 20.9 °C 11.5 °C 1015.5 hPa NE 19.8 km/h 25.9 km/h 55% 0.0 mm CLR
16:15 20.6 °C 11.5 °C 1015.5 hPa NE 20.9 km/h 35.4 km/h 56% 0.0 mm CLR
16:19 20.6 °C 11.5 °C 1015.5 hPa NE 20.9 km/h 31.5 km/h 56% 0.0 mm CLR
16:25 20.6 °C 11.8 °C 1015.5 hPa NE 20.9 km/h 30.6 km/h 57% 0.0 mm CLR
16:29 20.7 °C 11.9 °C 1015.5 hPa ENE 19.0 km/h 18.5 km/h 57% 0.0 mm CLR
16:35 20.7 °C 11.9 °C 1015.3 hPa NE 19.3 km/h 27.4 km/h 57% 0.0 mm CLR
16:39 20.5 °C 11.9 °C 1015.3 hPa NE 16.4 km/h 27.8 km/h 58% 0.0 mm CLR
16:45 20.8 °C 11.9 °C 1015.3 hPa NE 16.1 km/h 20.9 km/h 57% 0.0 mm CLR
16:49 20.7 °C 11.6 °C 1015.3 hPa ENE 13.0 km/h 24.1 km/h 56% 0.0 mm CLR
16:55 20.8 °C 11.7 °C 1015.3 hPa NE 13.0 km/h 15.6 km/h 56% 0.0 mm CLR
17:00 20.8 °C 11.9 °C 1015.3 hPa ENE 11.3 km/h 24.1 km/h 57% 0.0 mm CLR
17:05 20.8 °C 11.7 °C 1015.3 hPa ENE 11.3 km/h 24.1 km/h 56% 0.0 mm CLR
17:09 21.1 °C 11.7 °C 1015.3 hPa NE 11.1 km/h 14.8 km/h 55% 0.0 mm CLR
17:15 21.1 °C 11.7 °C 1015.3 hPa ENE 11.3 km/h 24.1 km/h 55% 0.0 mm CLR
17:19 21.2 °C 11.8 °C 1015.3 hPa ENE 11.1 km/h 19.0 km/h 55% 0.0 mm CLR
17:25 20.9 °C 11.6 °C 1015.3 hPa ENE 11.3 km/h 25.7 km/h 55% 0.0 mm CLR
17:29 20.7 °C 11.9 °C 1015.3 hPa ENE 14.8 km/h 22.2 km/h 57% 0.0 mm CLR
17:35 20.5 °C 11.9 °C 1015.3 hPa ENE 14.5 km/h 24.1 km/h 58% 0.0 mm CLR
17:39 20.5 °C 12.2 °C 1015.3 hPa NNE 14.0 km/h 20.4 km/h 59% 0.0 mm CLR
17:45 20.5 °C 11.9 °C 1015.3 hPa ENE 14.5 km/h 24.1 km/h 58% 0.0 mm CLR
17:49 20.6 °C 12.3 °C 1015.3 hPa NE 10.3 km/h 19.8 km/h 59% 0.0 mm CLR
17:55 20.4 °C 12.1 °C 1015.3 hPa ENE 11.3 km/h 24.1 km/h 59% 0.0 mm CLR
18:00 20.3 °C 12.3 °C 1015.3 hPa ENE 12.9 km/h 25.7 km/h 60% 0.0 mm CLR
18:05 20.1 °C 12.1 °C 1015.4 hPa NE 12.2 km/h 22.2 km/h 60% 0.0 mm CLR
18:09 19.9 °C 12.2 °C 1015.4 hPa NW 14.8 km/h 22.2 km/h 61% 0.0 mm CLR
18:15 19.9 °C 12.2 °C 1015.4 hPa NE 14.8 km/h 24.1 km/h 61% 0.0 mm CLR
18:19 19.7 °C 11.9 °C 1015.4 hPa NNE 15.6 km/h 24.1 km/h 61% 0.0 mm CLR
18:25 19.8 °C 12.3 °C 1015.4 hPa NE 14.5 km/h 25.7 km/h 62% 0.0 mm CLR
18:29 19.7 °C 12.2 °C 1015.4 hPa NE 15.6 km/h 27.8 km/h 62% 0.0 mm CLR
18:35 19.5 °C 12.1 °C 1015.4 hPa NE 14.5 km/h 25.7 km/h 62% 0.0 mm CLR
18:39 19.5 °C 12.0 °C 1015.4 hPa NE 15.6 km/h 14.8 km/h 62% 0.0 mm CLR
18:45 19.6 °C 12.1 °C 1015.4 hPa ENE 14.5 km/h 24.1 km/h 62% 0.0 mm CLR
18:49 19.5 °C 12.0 °C 1015.5 hPa NE 11.9 km/h 18.5 km/h 62% 0.0 mm CLR
18:55 19.6 °C 12.1 °C 1015.5 hPa NNE 11.9 km/h 18.5 km/h 62% 0.0 mm CLR
19:00 19.7 °C 12.2 °C 1015.5 hPa NE 11.3 km/h 25.7 km/h 62% 0.0 mm CLR
19:05 19.5 °C 12.0 °C 1015.5 hPa NNE 10.3 km/h 16.7 km/h 62% 0.0 mm CLR
19:09 19.4 °C 11.9 °C 1015.5 hPa NNE 11.9 km/h 24.1 km/h 62% 0.0 mm CLR
19:15 19.2 °C 12.0 °C 1015.5 hPa NE 11.3 km/h 24.1 km/h 63% 0.0 mm CLR
19:19 19.2 °C 12.0 °C 1015.4 hPa NE 13.7 km/h 24.1 km/h 63% 0.0 mm CLR
19:25 19.1 °C 11.9 °C 1015.4 hPa NE 12.9 km/h 27.4 km/h 63% 0.0 mm CLR
19:29 18.9 °C 11.9 °C 1015.4 hPa NE 14.0 km/h 16.7 km/h 64% 0.0 mm CLR
19:35 19.1 °C 12.1 °C 1015.5 hPa NE 14.5 km/h 20.9 km/h 64% 0.0 mm CLR
19:39 18.9 °C 11.7 °C 1015.5 hPa NE 10.0 km/h 18.5 km/h 63% 0.0 mm CLR
19:45 18.9 °C 11.7 °C 1015.5 hPa NE 9.7 km/h 19.3 km/h 63% 0.0 mm CLR
19:49 18.8 °C 11.8 °C 1015.4 hPa North 11.1 km/h 20.4 km/h 64% 0.0 mm CLR
19:55 18.8 °C 11.8 °C 1015.4 hPa ENE 11.3 km/h 19.3 km/h 64% 0.0 mm CLR
20:00 18.7 °C 12.0 °C 1015.4 hPa NE 9.7 km/h 19.3 km/h 65% 0.0 mm CLR
20:05 18.7 °C 12.0 °C 1015.4 hPa NE 9.7 km/h 19.3 km/h 65% 0.0 mm CLR
20:09 18.6 °C 12.1 °C 1015.4 hPa NE 10.0 km/h 16.7 km/h 66% 0.0 mm CLR
20:15 18.4 °C 11.9 °C 1015.4 hPa NE 9.7 km/h 20.9 km/h 66% 0.0 mm CLR
20:19 18.2 °C 11.9 °C 1015.5 hPa NE 13.0 km/h 18.5 km/h 67% 0.0 mm CLR
20:25 18.2 °C 12.2 °C 1015.5 hPa NE 12.9 km/h 19.3 km/h 68% 0.0 mm CLR
20:29 18.1 °C 12.1 °C 1015.5 hPa NE 11.1 km/h 18.5 km/h 68% 0.0 mm CLR
20:35 18.0 °C 12.2 °C 1015.5 hPa NE 11.3 km/h 22.5 km/h 69% 0.0 mm CLR
20:39 17.9 °C 12.1 °C 1015.5 hPa ENE 11.9 km/h 18.5 km/h 69% 0.0 mm CLR
20:45 17.8 °C 12.1 °C 1015.5 hPa NE 11.3 km/h 20.9 km/h 69% 0.0 mm CLR
20:49 17.7 °C 12.2 °C 1015.5 hPa ENE 11.9 km/h 14.8 km/h 70% 0.0 mm CLR
20:55 17.6 °C 12.1 °C 1015.5 hPa NE 11.3 km/h 14.5 km/h 70% 0.0 mm CLR
21:00 17.5 °C 12.2 °C 1015.5 hPa NE 11.3 km/h 20.9 km/h 71% 0.0 mm CLR
21:05 17.4 °C 12.1 °C 1015.7 hPa NE 11.3 km/h 19.3 km/h 71% 0.0 mm CLR
21:09 17.3 °C 12.2 °C 1015.7 hPa ENE 11.1 km/h 14.8 km/h 72% 0.0 mm CLR
21:15 17.2 °C 12.3 °C 1015.7 hPa NE 11.3 km/h 19.3 km/h 73% 0.0 mm CLR
21:19 17.1 °C 12.2 °C 1015.8 hPa NNE 10.3 km/h 13.0 km/h 73% 0.0 mm CLR
21:25 17.0 °C 12.3 °C 1015.8 hPa NE 10.3 km/h 13.0 km/h 74% 0.0 mm CLR
21:29 16.9 °C 12.4 °C 1015.8 hPa ENE 11.1 km/h 14.8 km/h 75% 0.0 mm CLR
21:35 16.8 °C 12.6 °C 1016.0 hPa NE 11.3 km/h 19.3 km/h 76% 0.0 mm CLR
21:39 16.7 °C 12.4 °C 1016.0 hPa NE 10.3 km/h 13.0 km/h 76% 0.0 mm CLR
21:45 16.7 °C 12.6 °C 1016.0 hPa NE 11.3 km/h 14.5 km/h 77% 0.0 mm CLR
21:49 16.5 °C 12.7 °C 1016.1 hPa NNE 10.0 km/h 16.7 km/h 78% 0.0 mm CLR
21:55 16.4 °C 12.6 °C 1016.1 hPa ENE 10.0 km/h 18.5 km/h 78% 0.0 mm CLR
22:00 16.3 °C 12.7 °C 1016.1 hPa NE 11.3 km/h 17.7 km/h 79% 0.0 mm CLR
22:05 16.3 °C 12.7 °C 1016.3 hPa NE 11.1 km/h 14.8 km/h 79% 0.0 mm CLR
22:09 16.2 °C 12.6 °C 1016.3 hPa NE 10.3 km/h 16.7 km/h 79% 0.0 mm CLR
22:15 16.1 °C 12.7 °C 1016.3 hPa NE 11.3 km/h 16.1 km/h 80% 0.0 mm CLR
22:19 16.1 °C 12.7 °C 1016.6 hPa NE 10.0 km/h 14.8 km/h 80% 0.0 mm CLR
22:25 16.0 °C 12.7 °C 1016.6 hPa NE 9.7 km/h 16.1 km/h 81% 0.0 mm CLR
22:29 15.9 °C 12.7 °C 1016.6 hPa ENE 9.5 km/h 13.0 km/h 81% 0.0 mm CLR
22:35 15.9 °C 12.7 °C 1016.7 hPa ENE 9.5 km/h 14.8 km/h 81% 0.0 mm CLR
22:39 15.8 °C 12.7 °C 1016.7 hPa ENE 8.7 km/h 14.8 km/h 82% 0.0 mm CLR
22:45 15.7 °C 12.6 °C 1016.7 hPa NNE 8.7 km/h 11.1 km/h 82% 0.0 mm CLR
22:49 15.7 °C 12.8 °C 1016.8 hPa NE 9.5 km/h 13.0 km/h 83% 0.0 mm CLR
22:55 15.6 °C 12.7 °C 1016.8 hPa NNE 9.5 km/h 11.1 km/h 83% 0.0 mm CLR
22:59 15.6 °C 12.7 °C 1016.8 hPa NE 8.7 km/h 13.0 km/h 83% 0.0 mm CLR
23:05 15.5 °C 12.6 °C 1016.8 hPa ENE 8.7 km/h 13.0 km/h 83% 0.0 mm CLR
23:09 15.4 °C 12.7 °C 1016.8 hPa ENE 8.4 km/h 13.0 km/h 84% 0.0 mm CLR
23:15 15.4 °C 12.7 °C 1016.8 hPa NE 8.0 km/h 14.5 km/h 84% 0.0 mm CLR
23:19 15.4 °C 12.7 °C 1016.9 hPa NE 8.4 km/h 13.0 km/h 84% 0.0 mm CLR
23:25 15.3 °C 12.6 °C 1016.9 hPa NE 8.4 km/h 13.0 km/h 84% 0.0 mm CLR
23:29 15.3 °C 12.6 °C 1016.9 hPa NNE 8.4 km/h 13.0 km/h 84% 0.0 mm CLR
23:35 15.3 °C 12.6 °C 1017.0 hPa NE 8.0 km/h 14.5 km/h 84% 0.0 mm CLR
23:39 15.3 °C 12.6 °C 1017.0 hPa North 8.4 km/h 9.3 km/h 84% 0.0 mm CLR
23:44 15.3 °C 12.6 °C 1017.0 hPa ENE 8.4 km/h 11.1 km/h 84% 0.0 mm CLR
23:49 15.3 °C 12.6 °C 1017.0 hPa NE 6.4 km/h 9.3 km/h 84% 0.0 mm CLR
23:55 15.3 °C 12.6 °C 1017.0 hPa NE 8.0 km/h 9.7 km/h 84% 0.0 mm CLR
Murcia-Puente Tocinos, España
Compliments of Weather Underground - 2.75 mb

La estación de MeteoMurcia.com, publica sus datos en los siguientes proyectos:

Weather Underground PWS IMURCIAP2 Meteoclimatic www.awekas.at

W3Counter
Web Analytics